createdAt,value
2022-10-08T00:01:09.553Z,4.03
2022-10-08T00:03:39.897Z,3.33
2022-10-08T00:06:14.868Z,3.53
2022-10-08T00:08:46.511Z,3.50
2022-10-08T00:11:19.982Z,3.60
2022-10-08T00:13:50.352Z,3.30
2022-10-08T00:16:23.761Z,3.20
2022-10-08T00:19:07.894Z,3.40
2022-10-08T00:21:39.746Z,3.60
2022-10-08T00:24:09.678Z,3.53
2022-10-08T00:26:44.056Z,3.50
2022-10-08T00:29:15.292Z,3.40
2022-10-08T00:31:46.450Z,3.80
2022-10-08T00:34:16.913Z,3.40
2022-10-08T00:36:47.412Z,3.63
2022-10-08T00:39:17.954Z,3.00
2022-10-08T00:41:51.390Z,3.43
2022-10-08T00:44:57.557Z,3.33
2022-10-08T00:47:45.400Z,3.50
2022-10-08T00:50:18.484Z,3.30
2022-10-08T00:52:53.404Z,3.53
2022-10-08T00:55:28.047Z,3.73
2022-10-08T00:57:58.346Z,3.30
2022-10-08T01:00:27.145Z,3.10
2022-10-08T01:02:55.846Z,3.07
2022-10-08T01:05:31.448Z,3.63
2022-10-08T01:08:08.237Z,2.90
2022-10-08T01:10:43.949Z,3.40
2022-10-08T01:13:24.404Z,3.47
2022-10-08T01:16:02.634Z,3.27
2022-10-08T01:18:42.573Z,3.17
2022-10-08T01:21:14.955Z,3.70
2022-10-08T01:24:11.210Z,3.20
2022-10-08T01:26:53.988Z,3.30
2022-10-08T01:29:31.074Z,3.00
2022-10-08T01:32:03.353Z,3.13
2022-10-08T01:34:37.678Z,3.37
2022-10-08T01:37:09.636Z,3.43
2022-10-08T01:39:40.385Z,3.23
2022-10-08T01:42:10.601Z,2.90
2022-10-08T01:44:43.059Z,2.60
2022-10-08T01:47:14.706Z,2.63
2022-10-08T01:49:46.979Z,2.50
2022-10-08T01:52:24.036Z,2.70
2022-10-08T01:54:57.309Z,2.90
2022-10-08T01:57:27.062Z,3.10
2022-10-08T02:00:01.140Z,3.37
2022-10-08T02:02:29.910Z,3.80
2022-10-08T02:04:58.357Z,3.60
2022-10-08T02:07:28.871Z,3.27
2022-10-08T02:10:05.702Z,3.10
2022-10-08T02:12:49.560Z,2.97
2022-10-08T02:15:24.283Z,3.60
2022-10-08T02:17:59.129Z,3.90
2022-10-08T02:20:45.461Z,3.40
2022-10-08T02:23:29.786Z,3.20
2022-10-08T02:26:00.515Z,3.70
2022-10-08T02:28:38.152Z,3.40
2022-10-08T02:31:14.228Z,3.50
2022-10-08T02:33:47.390Z,3.90
2022-10-08T02:36:21.061Z,3.60
2022-10-08T02:38:55.553Z,3.63
2022-10-08T02:41:31.541Z,3.90
2022-10-08T02:44:06.482Z,3.47
2022-10-08T02:46:41.360Z,3.80
2022-10-08T02:49:15.041Z,3.40
2022-10-08T02:51:46.865Z,4.00
2022-10-08T02:54:16.319Z,3.40
2022-10-08T02:56:49.417Z,3.13
2022-10-08T02:59:19.713Z,3.23
2022-10-08T03:01:52.180Z,3.43
2022-10-08T03:04:27.142Z,3.00
2022-10-08T03:06:57.889Z,3.07
2022-10-08T03:09:30.035Z,3.87
2022-10-08T03:11:58.713Z,3.60
2022-10-08T03:14:28.687Z,3.50
2022-10-08T03:16:58.893Z,3.47
2022-10-08T03:19:28.549Z,3.10
2022-10-08T03:22:17.191Z,3.00
2022-10-08T03:24:45.461Z,3.10
2022-10-08T03:27:14.709Z,3.13
2022-10-08T03:29:42.955Z,3.63
2022-10-08T03:32:12.591Z,3.30
2022-10-08T03:34:54.758Z,2.83
2022-10-08T03:37:26.966Z,3.00
2022-10-08T03:39:55.229Z,3.10
2022-10-08T03:42:24.024Z,3.00
2022-10-08T03:44:53.199Z,3.23
2022-10-08T03:47:22.834Z,3.57
2022-10-08T03:49:51.228Z,3.10
2022-10-08T03:52:19.445Z,3.20
2022-10-08T03:54:47.720Z,3.20
2022-10-08T03:57:15.994Z,3.40
2022-10-08T03:59:44.211Z,3.57
2022-10-08T04:02:12.486Z,3.17
2022-10-08T04:04:42.218Z,3.23
2022-10-08T04:07:10.460Z,3.33
2022-10-08T04:09:38.937Z,3.13
2022-10-08T04:12:07.380Z,3.50
2022-10-08T04:14:35.620Z,4.00
2022-10-08T04:17:03.966Z,3.13
2022-10-08T04:19:32.253Z,3.00
2022-10-08T04:22:02.611Z,3.50
2022-10-08T04:24:31.045Z,3.50
2022-10-08T04:27:01.580Z,3.93
2022-10-08T04:29:29.861Z,3.73
2022-10-08T04:31:58.287Z,3.33
2022-10-08T04:34:27.393Z,3.70
2022-10-08T04:36:56.190Z,3.87
2022-10-08T04:39:40.656Z,4.07
2022-10-08T04:42:08.925Z,4.23
2022-10-08T04:44:37.256Z,3.40
2022-10-08T04:47:05.718Z,3.40
2022-10-08T04:49:34.044Z,3.60
2022-10-08T04:52:02.661Z,3.80
2022-10-08T04:54:30.921Z,3.70
2022-10-08T04:57:01.372Z,3.80
2022-10-08T04:59:32.055Z,3.40
2022-10-08T05:02:00.485Z,3.50
2022-10-08T05:04:28.913Z,3.60
2022-10-08T05:06:57.206Z,3.50
2022-10-08T05:09:25.488Z,3.10
2022-10-08T05:11:53.748Z,3.10
2022-10-08T05:14:23.482Z,3.53
2022-10-08T05:16:51.783Z,3.47
2022-10-08T05:19:20.194Z,3.30
2022-10-08T05:21:48.512Z,3.73
2022-10-08T05:24:16.820Z,3.67
2022-10-08T05:27:00.643Z,3.27
2022-10-08T05:29:45.862Z,3.27
2022-10-08T05:32:28.978Z,3.30
2022-10-08T05:34:57.280Z,3.90
2022-10-08T05:37:25.572Z,3.77
2022-10-08T05:39:53.880Z,4.10
2022-10-08T05:42:22.131Z,3.63
2022-10-08T05:44:51.818Z,3.87
2022-10-08T05:47:41.245Z,3.60
2022-10-08T05:50:41.721Z,3.90
2022-10-08T05:53:37.017Z,3.80
2022-10-08T05:56:12.954Z,3.60
2022-10-08T05:59:12.005Z,3.43
2022-10-08T06:05:12.004Z,3.40
2022-10-08T06:08:02.129Z,3.60
2022-10-08T06:13:41.977Z,3.40
2022-10-08T06:16:19.646Z,3.47
2022-10-08T06:18:57.102Z,3.60
2022-10-08T06:21:32.307Z,3.70
2022-10-08T06:24:19.872Z,3.23
2022-10-08T06:26:48.573Z,3.30
2022-10-08T06:29:28.689Z,3.37
2022-10-08T06:32:15.397Z,3.03
2022-10-08T06:35:08.151Z,3.63
2022-10-08T06:38:05.968Z,3.40
2022-10-08T06:40:47.307Z,3.50
2022-10-08T06:43:44.831Z,3.67
2022-10-08T06:46:16.806Z,3.47
2022-10-08T06:48:48.946Z,3.67
2022-10-08T06:51:20.565Z,4.00
2022-10-08T06:53:54.792Z,3.77
2022-10-08T06:56:23.846Z,3.63
2022-10-08T06:58:53.197Z,3.77
2022-10-08T07:01:23.343Z,4.03
2022-10-08T07:03:53.547Z,3.60
2022-10-08T07:06:23.699Z,4.53
2022-10-08T07:08:54.938Z,4.20
2022-10-08T07:11:24.376Z,3.87
2022-10-08T07:13:53.060Z,4.10
2022-10-08T07:16:24.349Z,4.53
2022-10-08T07:18:54.536Z,4.63
2022-10-08T07:21:24.495Z,3.80
2022-10-08T07:23:52.991Z,3.80
2022-10-08T07:26:26.968Z,3.97
2022-10-08T07:28:58.101Z,3.33
2022-10-08T07:31:29.719Z,4.10
2022-10-08T07:33:58.469Z,3.60
2022-10-08T07:36:29.382Z,3.90
2022-10-08T07:38:59.101Z,3.70
2022-10-08T07:41:28.057Z,3.90
2022-10-08T07:43:59.599Z,3.60
2022-10-08T07:46:28.199Z,3.63
2022-10-08T07:48:59.150Z,3.60
2022-10-08T07:51:31.301Z,3.90
2022-10-08T07:54:02.706Z,3.30
2022-10-08T07:56:32.571Z,4.07
2022-10-08T07:59:01.966Z,3.77
2022-10-08T08:01:31.864Z,3.57
2022-10-08T08:04:02.381Z,3.10
2022-10-08T08:06:34.556Z,3.60
2022-10-08T08:09:02.996Z,3.40
2022-10-08T08:11:32.160Z,3.27
2022-10-08T08:14:00.549Z,3.40
2022-10-08T08:16:30.230Z,3.73
2022-10-08T08:18:59.911Z,3.77
2022-10-08T08:21:30.734Z,3.67
2022-10-08T08:24:05.957Z,3.67
2022-10-08T08:26:38.716Z,3.40
2022-10-08T08:29:09.002Z,3.30
2022-10-08T08:31:39.699Z,3.70
2022-10-08T08:34:10.439Z,2.97
2022-10-08T08:36:41.536Z,3.03
2022-10-08T08:39:18.380Z,2.80
2022-10-08T08:41:58.033Z,2.73
2022-10-08T08:44:37.370Z,2.97
2022-10-08T08:47:12.613Z,2.80
2022-10-08T08:49:45.292Z,2.70
2022-10-08T08:52:25.967Z,2.90
2022-10-08T08:54:56.013Z,2.87
2022-10-08T08:57:36.901Z,2.60
2022-10-08T09:00:12.423Z,2.80
2022-10-08T09:02:52.159Z,2.70
2022-10-08T09:05:21.836Z,2.40
2022-10-08T09:07:54.389Z,2.67
2022-10-08T09:10:30.841Z,2.20
2022-10-08T09:13:01.231Z,2.40
2022-10-08T09:15:34.671Z,2.40
2022-10-08T09:18:04.300Z,2.50
2022-10-08T09:20:36.697Z,2.30
2022-10-08T09:23:14.047Z,2.00
2022-10-08T09:25:45.526Z,2.17
2022-10-08T09:28:41.729Z,2.17
2022-10-08T09:31:19.017Z,2.55
2022-10-08T09:33:56.203Z,2.13
2022-10-08T09:36:40.133Z,2.13
2022-10-08T09:39:24.087Z,2.28
2022-10-08T09:42:17.303Z,3.00
2022-10-08T09:44:47.172Z,3.60
2022-10-08T09:47:17.627Z,3.13
2022-10-08T09:49:50.013Z,2.72
2022-10-08T09:52:22.571Z,2.30
2022-10-08T09:54:55.370Z,2.25
2022-10-08T09:57:25.531Z,2.25
2022-10-08T10:00:00.473Z,2.38
2022-10-08T10:02:34.230Z,2.28
2022-10-08T10:05:05.393Z,2.58
2022-10-08T10:07:45.374Z,2.40
2022-10-08T10:10:19.489Z,2.33
2022-10-08T10:12:52.430Z,2.10
2022-10-08T10:15:25.411Z,2.20
2022-10-08T10:17:57.049Z,2.10
2022-10-08T10:20:30.226Z,2.43
2022-10-08T10:23:03.032Z,2.37
2022-10-08T10:25:38.275Z,3.07
2022-10-08T10:28:17.193Z,2.27
2022-10-08T10:30:52.567Z,1.90
2022-10-08T10:33:25.074Z,2.30
2022-10-08T10:35:57.266Z,2.30
2022-10-08T10:38:28.819Z,2.50
2022-10-08T10:41:12.890Z,2.33
2022-10-08T10:44:01.710Z,2.07
2022-10-08T10:46:49.691Z,1.87
2022-10-08T10:49:21.141Z,1.93
2022-10-08T10:52:02.482Z,2.30
2022-10-08T10:54:52.378Z,2.20
2022-10-08T10:57:32.902Z,2.05
2022-10-08T11:00:07.676Z,2.00
2022-10-08T11:02:43.888Z,2.05
2022-10-08T11:05:19.788Z,2.10
2022-10-08T11:08:20.289Z,2.33
2022-10-08T11:11:02.254Z,2.38
2022-10-08T11:13:45.555Z,2.40
2022-10-08T11:16:29.368Z,2.13
2022-10-08T11:19:14.312Z,1.93
2022-10-08T11:21:53.258Z,2.03
2022-10-08T11:24:40.431Z,2.00
2022-10-08T11:27:17.121Z,1.70
2022-10-08T11:29:52.955Z,1.63
2022-10-08T11:32:23.756Z,1.90
2022-10-08T11:34:57.307Z,1.90
2022-10-08T11:37:32.670Z,1.90
2022-10-08T11:40:21.386Z,1.80
2022-10-08T11:42:58.241Z,1.90
2022-10-08T11:45:37.942Z,1.90
2022-10-08T11:48:32.953Z,2.08
2022-10-08T11:51:40.249Z,1.80
2022-10-08T11:54:17.729Z,2.00
2022-10-08T11:56:49.134Z,1.80
2022-10-08T11:59:32.951Z,2.20
2022-10-08T12:02:04.084Z,2.03
2022-10-08T12:04:36.510Z,1.77
2022-10-08T12:07:18.205Z,1.67
2022-10-08T12:10:34.431Z,2.00
2022-10-08T12:13:24.370Z,2.27
2022-10-08T12:15:57.992Z,2.00
2022-10-08T12:18:48.319Z,1.70
2022-10-08T12:21:47.079Z,2.10
2022-10-08T12:25:00.083Z,1.93
2022-10-08T12:27:34.977Z,1.93
2022-10-08T12:30:06.885Z,2.00
2022-10-08T12:32:54.972Z,2.10
2022-10-08T12:35:25.929Z,2.20
2022-10-08T12:38:29.721Z,2.17
2022-10-08T12:41:09.448Z,2.00
2022-10-08T12:43:46.763Z,2.10
2022-10-08T12:46:27.397Z,1.93
2022-10-08T12:49:01.120Z,1.87
2022-10-08T12:51:42.234Z,2.00
2022-10-08T12:54:20.989Z,1.90
2022-10-08T12:56:51.440Z,2.10
2022-10-08T12:59:22.075Z,1.50
2022-10-08T13:01:58.937Z,1.80
2022-10-08T13:04:32.382Z,1.63
2022-10-08T13:07:02.318Z,1.70
2022-10-08T13:09:34.458Z,1.70
2022-10-08T13:12:05.797Z,1.57
2022-10-08T13:14:36.225Z,1.80
2022-10-08T13:17:06.342Z,1.60
2022-10-08T13:19:37.007Z,1.80
2022-10-08T13:22:09.002Z,1.40
2022-10-08T13:24:43.934Z,1.33
2022-10-08T13:27:27.169Z,1.50
2022-10-08T13:29:55.833Z,1.70
2022-10-08T13:32:26.227Z,1.47
2022-10-08T13:34:58.279Z,1.40
2022-10-08T13:37:33.019Z,1.57
2022-10-08T13:40:05.804Z,1.50
2022-10-08T13:42:49.781Z,1.57
2022-10-08T13:45:20.553Z,1.53
2022-10-08T13:47:50.104Z,1.53
2022-10-08T13:50:19.598Z,1.57
2022-10-08T13:52:53.993Z,1.30
2022-10-08T13:55:28.360Z,1.67
2022-10-08T13:58:00.023Z,1.70
2022-10-08T14:00:33.153Z,1.50
2022-10-08T14:03:14.020Z,1.60
2022-10-08T14:06:02.851Z,1.60
2022-10-08T14:08:52.043Z,1.63
2022-10-08T14:11:24.575Z,1.50
2022-10-08T14:13:53.342Z,1.50
2022-10-08T14:16:25.702Z,1.80
2022-10-08T14:18:56.889Z,1.70
2022-10-08T14:21:28.011Z,1.33
2022-10-08T14:23:56.758Z,1.40
2022-10-08T14:26:30.550Z,1.47
2022-10-08T14:29:00.311Z,1.33
2022-10-08T14:31:29.506Z,1.20
2022-10-08T14:33:58.133Z,1.60
2022-10-08T14:36:33.946Z,1.57
2022-10-08T14:39:02.408Z,1.40
2022-10-08T14:41:32.666Z,1.33
2022-10-08T14:44:14.816Z,1.53
2022-10-08T14:46:43.206Z,1.50
2022-10-08T14:49:11.943Z,1.37
2022-10-08T14:51:40.580Z,1.40
2022-10-08T14:54:10.174Z,1.00
2022-10-08T14:56:44.808Z,1.17
2022-10-08T14:59:13.190Z,1.23
2022-10-08T15:01:42.347Z,1.60
2022-10-08T15:04:14.774Z,1.40
2022-10-08T15:06:57.193Z,1.10
2022-10-08T15:09:25.437Z,1.30
2022-10-08T15:11:55.056Z,1.13
2022-10-08T15:14:23.900Z,1.30
2022-10-08T15:16:52.175Z,1.07
2022-10-08T15:19:23.982Z,1.23
2022-10-08T15:21:52.612Z,1.30
2022-10-08T15:24:20.881Z,1.50
2022-10-08T15:26:49.150Z,1.50
2022-10-08T15:29:18.810Z,1.73
2022-10-08T15:31:47.562Z,1.47
2022-10-08T15:34:18.496Z,1.57
2022-10-08T15:36:46.926Z,1.57
2022-10-08T15:39:17.204Z,1.47
2022-10-08T15:41:48.073Z,1.60
2022-10-08T15:44:20.891Z,1.30
2022-10-08T15:46:50.664Z,1.30
2022-10-08T15:49:18.909Z,1.80
2022-10-08T15:51:47.174Z,1.50
2022-10-08T15:54:15.535Z,1.50
2022-10-08T15:56:43.899Z,1.60
2022-10-08T15:59:12.316Z,1.67
2022-10-08T16:01:41.958Z,1.60
2022-10-08T16:04:13.460Z,1.70
2022-10-08T16:06:45.108Z,1.47
2022-10-08T16:09:15.151Z,1.60
2022-10-08T16:11:44.569Z,1.80
2022-10-08T16:14:15.315Z,1.37
2022-10-08T16:16:46.587Z,1.63
2022-10-08T16:19:17.785Z,1.70
2022-10-08T16:21:47.653Z,1.40
2022-10-08T16:24:16.255Z,1.50
2022-10-08T16:26:45.279Z,1.40
2022-10-08T16:29:15.158Z,1.63
2022-10-08T16:31:46.537Z,1.60
2022-10-08T16:34:16.854Z,1.20
2022-10-08T16:36:45.869Z,1.70
2022-10-08T16:39:17.913Z,2.17
2022-10-08T16:41:47.225Z,2.40
2022-10-08T16:44:16.958Z,1.80
2022-10-08T16:46:50.382Z,1.40
2022-10-08T16:49:24.713Z,2.10
2022-10-08T16:51:54.541Z,1.90
2022-10-08T16:54:23.072Z,2.07
2022-10-08T16:56:51.555Z,1.80
2022-10-08T16:59:22.263Z,1.90
2022-10-08T17:01:55.798Z,1.70
2022-10-08T17:04:26.343Z,1.57
2022-10-08T17:06:54.919Z,1.40
2022-10-08T17:09:23.548Z,1.67
2022-10-08T17:11:52.536Z,1.50
2022-10-08T17:14:21.055Z,1.80
2022-10-08T17:16:51.662Z,1.40
2022-10-08T17:19:20.634Z,1.60
2022-10-08T17:21:48.994Z,1.70
2022-10-08T17:24:26.860Z,1.57
2022-10-08T17:27:08.145Z,1.93
2022-10-08T17:29:44.758Z,2.60
2022-10-08T17:32:40.187Z,2.40
2022-10-08T17:35:24.760Z,2.50
2022-10-08T17:38:07.107Z,2.90
2022-10-08T17:40:47.985Z,2.97
2022-10-08T17:43:44.472Z,3.07
2022-10-08T17:46:17.062Z,3.80
2022-10-08T17:48:47.393Z,4.03
2022-10-08T17:51:17.900Z,4.93
2022-10-08T17:53:53.229Z,5.30
2022-10-08T17:56:22.164Z,5.13
2022-10-08T17:58:50.958Z,5.37
2022-10-08T18:01:22.094Z,4.47
2022-10-08T18:03:54.233Z,3.50
2022-10-08T18:06:23.822Z,3.17
2022-10-08T18:08:58.359Z,2.73
2022-10-08T18:11:27.787Z,2.17
2022-10-08T18:13:56.139Z,2.70
2022-10-08T18:16:26.708Z,2.60
2022-10-08T18:18:56.492Z,2.63
2022-10-08T18:21:30.828Z,3.13
2022-10-08T18:24:04.666Z,3.47
2022-10-08T18:26:34.944Z,3.33
2022-10-08T18:29:05.409Z,3.83
2022-10-08T18:31:34.838Z,3.63
2022-10-08T18:34:08.083Z,4.90
2022-10-08T18:36:38.788Z,3.73
2022-10-08T18:39:09.833Z,3.50
2022-10-08T18:41:41.445Z,3.67
2022-10-08T18:44:12.828Z,3.30
2022-10-08T18:46:42.306Z,3.50
2022-10-08T18:49:30.635Z,3.90
2022-10-08T18:51:59.690Z,5.30
2022-10-08T18:54:28.900Z,8.07
2022-10-08T18:57:00.258Z,8.77
2022-10-08T18:59:30.816Z,10.13
2022-10-08T19:02:00.605Z,8.90
2022-10-08T19:04:30.522Z,6.70
2022-10-08T19:06:58.830Z,5.50
2022-10-08T19:09:30.943Z,5.07
2022-10-08T19:12:00.906Z,4.80
2022-10-08T19:14:29.677Z,5.10
2022-10-08T19:16:59.728Z,5.53
2022-10-08T19:19:32.144Z,5.30
2022-10-08T19:22:01.660Z,5.73
2022-10-08T19:24:31.044Z,10.50
2022-10-08T19:26:59.554Z,10.77
2022-10-08T19:29:31.929Z,12.03
2022-10-08T19:32:00.380Z,11.80
2022-10-08T19:34:30.902Z,10.67
2022-10-08T19:36:59.376Z,10.30
2022-10-08T19:39:30.817Z,8.60
2022-10-08T19:41:59.479Z,6.70
2022-10-08T19:44:28.006Z,4.80
2022-10-08T19:46:56.394Z,4.27
2022-10-08T19:49:24.786Z,3.30
2022-10-08T19:51:54.810Z,3.10
2022-10-08T19:54:23.246Z,3.20
2022-10-08T19:56:51.863Z,3.27
2022-10-08T19:59:31.078Z,3.37
2022-10-08T20:01:59.701Z,3.30
2022-10-08T20:04:28.355Z,3.20
2022-10-08T20:07:00.825Z,2.90
2022-10-08T20:09:43.414Z,3.30
2022-10-08T20:12:12.019Z,3.50
2022-10-08T20:14:41.114Z,4.17
2022-10-08T20:17:10.133Z,3.13
2022-10-08T20:19:38.634Z,3.50
2022-10-08T20:22:11.686Z,2.90
2022-10-08T20:24:42.276Z,2.87
2022-10-08T20:27:10.730Z,2.73
2022-10-08T20:29:39.181Z,2.73
2022-10-08T20:32:07.607Z,2.70
2022-10-08T20:34:36.165Z,3.00
2022-10-08T20:37:04.862Z,4.37
2022-10-08T20:39:35.851Z,4.90
2022-10-08T20:42:06.101Z,5.43
2022-10-08T20:44:34.529Z,6.20
2022-10-08T20:47:03.764Z,6.87
2022-10-08T20:49:35.960Z,7.50
2022-10-08T20:52:04.919Z,7.67
2022-10-08T20:54:33.409Z,7.27
2022-10-08T20:57:03.083Z,8.23
2022-10-08T20:59:45.572Z,8.13
2022-10-08T21:02:18.903Z,8.13
2022-10-08T21:04:48.338Z,8.47
2022-10-08T21:07:16.670Z,8.40
2022-10-08T21:09:48.841Z,9.37
2022-10-08T21:12:18.549Z,9.27
2022-10-08T21:14:47.121Z,10.07
2022-10-08T21:17:17.048Z,9.07
2022-10-08T21:19:46.018Z,9.40
2022-10-08T21:22:17.224Z,8.73
2022-10-08T21:24:48.559Z,8.07
2022-10-08T21:27:18.172Z,8.30
2022-10-08T21:29:46.481Z,7.63
2022-10-08T21:32:16.819Z,6.77
2022-10-08T21:34:45.128Z,7.80
2022-10-08T21:37:14.050Z,7.50
2022-10-08T21:39:42.491Z,7.07
2022-10-08T21:42:17.189Z,7.97
2022-10-08T21:44:47.063Z,6.80
2022-10-08T21:47:15.305Z,7.07
2022-10-08T21:49:43.880Z,8.03
2022-10-08T21:52:12.688Z,7.00
2022-10-08T21:54:40.982Z,6.27
2022-10-08T21:57:12.196Z,5.93
2022-10-08T21:59:43.301Z,6.57
2022-10-08T22:02:13.046Z,6.80
2022-10-08T22:04:41.813Z,6.47
2022-10-08T22:07:10.240Z,6.10
2022-10-08T22:09:38.820Z,5.37
2022-10-08T22:12:07.199Z,5.20
2022-10-08T22:14:35.592Z,5.43
2022-10-08T22:17:04.072Z,4.73
2022-10-08T22:19:35.821Z,4.40
2022-10-08T22:22:04.144Z,4.60
2022-10-08T22:24:32.487Z,4.70
2022-10-08T22:27:02.310Z,4.97
2022-10-08T22:29:30.530Z,3.73
2022-10-08T22:31:59.069Z,3.77
2022-10-08T22:34:27.378Z,4.20
2022-10-08T22:36:57.111Z,3.80
2022-10-08T22:39:25.825Z,4.30
2022-10-08T22:41:54.381Z,3.90
2022-10-08T22:44:22.782Z,4.40
2022-10-08T22:46:51.206Z,4.90
2022-10-08T22:49:19.643Z,4.90
2022-10-08T22:51:51.139Z,4.83
2022-10-08T22:54:21.365Z,4.90
2022-10-08T22:56:49.605Z,4.77
2022-10-08T22:59:18.369Z,4.57
2022-10-08T23:01:47.065Z,4.40
2022-10-08T23:04:15.424Z,4.40
2022-10-08T23:06:46.265Z,4.17
2022-10-08T23:09:14.539Z,4.50
2022-10-08T23:11:44.119Z,4.30
2022-10-08T23:14:14.181Z,4.33
2022-10-08T23:16:42.496Z,4.50
2022-10-08T23:19:12.464Z,4.80
2022-10-08T23:21:43.521Z,4.70
2022-10-08T23:24:12.701Z,4.37
2022-10-08T23:26:40.987Z,4.97
2022-10-08T23:29:12.687Z,4.40
2022-10-08T23:31:41.246Z,4.80
2022-10-08T23:34:09.686Z,4.70
2022-10-08T23:36:40.146Z,4.20
2022-10-08T23:39:11.485Z,4.40
2022-10-08T23:41:39.853Z,5.23
2022-10-08T23:44:08.910Z,5.37
2022-10-08T23:46:38.701Z,5.27
2022-10-08T23:49:07.084Z,5.63
2022-10-08T23:51:35.955Z,6.43
2022-10-08T23:54:04.326Z,7.23
2022-10-08T23:56:32.621Z,6.67
2022-10-08T23:59:00.997Z,7.73
